Terminal Aerodrome Forecast
Issued by NWS Bismarck, ND

Home | Current Version | Previous Version | Graphics & Text | Print | Product List | Glossary On
Versions: 1 2 3 4 5 6 7 8 9 10 11 12 13 14 15 16 17 18 19 20 21
672
FTUS43 KBIS 142155 AAB
TAFISN
TAF AMD
KISN 142155Z 1422/1518 29015KT P6SM OVC030
     FM142300 28009KT P6SM OVC060
     FM150500 25005KT P6SM OVC070
     FM151600 27010KT P6SM OVC090=

USA.gov is the U.S. government's official web portal to all federal, state and local government web resources and services.